» Metar & Tafor

17 Juni 2022
METAR
Pukul : 00.00 UTC
Isi :

METAR WAGI 080000Z 11003KT CAVOK 25/23 Q1010 NOSIG=


10 Juni 2019
TAFOR
Pukul : 00 - 12 UTC
Isi :

TAF WAGI 072300Z 0800/0812 13005KT 9000 SCT014=


Hal: << First | < Prev | 1 | Next > | Last >>